Time;durP1;ratioP1;P1;durP2;ratioP2;P2;SDS_P1;SDS_P2;PMS_P1;PMS_P2;Temp;Humidity;BMP_temperature;BMP_pressure;BME280_temperature;BME280_humidity;BME280_pressure;Samples;Min_cycle;Max_cycle;Signal;HPM_P1;HPM_P2
2021/03/07 00:01:28;;;;;;;32.38;18.15;;;;;;;-1.43;67.41;102826.22;5092799;28;20020;-72
2021/03/07 00:03:54;;;;;;;27.95;14.57;;;;;;;-1.46;68.22;102829.47;5102522;28;20370;-76
2021/03/07 00:06:19;;;;;;;27.45;15.02;;;;;;;-1.50;67.96;102827.41;5104165;28;20098;-74
2021/03/07 00:08:45;;;;;;;31.17;16.80;;;;;;;-1.58;68.08;102828.44;5093068;28;20348;-75
2021/03/07 00:11:10;;;;;;;33.78;18.90;;;;;;;-1.63;68.11;102827.13;5092632;28;20025;-74
2021/03/07 00:13:35;;;;;;;34.65;20.38;;;;;;;-1.67;68.17;102825.97;5104305;28;20540;-69
2021/03/07 00:16:01;;;;;;;36.30;19.27;;;;;;;-1.74;68.55;102820.13;5102161;28;20016;-70
2021/03/07 00:18:26;;;;;;;31.40;18.48;;;;;;;-1.78;68.56;102830.25;5074453;28;20028;-72
2021/03/07 00:20:51;;;;;;;30.92;17.10;;;;;;;-1.87;69.45;102832.03;5102009;28;20043;-73
2021/03/07 00:23:16;;;;;;;30.60;15.40;;;;;;;-1.91;69.61;102829.94;5104076;28;20023;-75
2021/03/07 00:25:42;;;;;;;30.38;15.20;;;;;;;-1.96;69.30;102831.25;5101082;28;20103;-73
2021/03/07 00:28:07;;;;;;;27.35;14.30;;;;;;;-2.03;69.68;102826.31;5092509;28;20352;-74
2021/03/07 00:30:32;;;;;;;28.33;15.20;;;;;;;-2.07;69.99;102832.88;5092167;28;20028;-69
2021/03/07 00:32:58;;;;;;;29.83;15.18;;;;;;;-2.13;69.94;102828.06;5092342;28;20024;-74
2021/03/07 00:35:23;;;;;;;29.15;14.90;;;;;;;-2.18;69.76;102828.47;5102053;28;20059;-74
2021/03/07 00:37:48;;;;;;;28.45;14.00;;;;;;;-2.34;70.84;102823.63;5103760;28;20107;-73
2021/03/07 00:40:14;;;;;;;30.10;15.68;;;;;;;-2.41;71.69;102826.44;5094484;28;20475;-70
2021/03/07 00:42:44;;;;;;;29.48;16.40;;;;;;;-2.46;71.87;102824.34;5096294;28;20428;-68
2021/03/07 00:45:10;;;;;;;29.80;15.75;;;;;;;-2.46;71.70;102832.13;5107932;28;20587;-72
2021/03/07 00:47:36;;;;;;;29.77;16.00;;;;;;;-2.50;71.88;102837.78;5105607;28;20020;-74
2021/03/07 00:50:14;;;;;;;30.30;16.40;;;;;;;-2.54;71.29;102833.09;5106965;28;20459;-73
2021/03/07 00:52:40;;;;;;;28.92;15.90;;;;;;;-2.59;71.63;102826.63;5086108;28;20040;-68
2021/03/07 00:55:07;;;;;;;29.92;16.95;;;;;;;-2.60;72.04;102832.56;5096012;28;20032;-67
2021/03/07 00:57:33;;;;;;;30.08;16.35;;;;;;;-2.58;72.53;102824.94;5106947;28;20044;-75
2021/03/07 00:59:58;;;;;;;31.85;17.17;;;;;;;-2.56;72.60;102820.78;5106117;28;20122;-75
2021/03/07 01:02:25;;;;;;;30.60;16.42;;;;;;;-2.57;71.92;102838.00;5096280;28;20024;-75
2021/03/07 01:04:51;;;;;;;29.23;16.50;;;;;;;-2.58;71.99;102836.19;5105189;28;20470;-75
2021/03/07 01:07:16;;;;;;;29.70;15.95;;;;;;;-2.61;71.54;102828.16;5107721;28;20101;-75
2021/03/07 01:09:41;;;;;;;28.95;16.05;;;;;;;-2.63;72.13;102827.13;5095905;28;20028;-75
2021/03/07 01:12:07;;;;;;;29.67;16.35;;;;;;;-2.66;71.90;102819.06;5107068;28;20069;-75
2021/03/07 01:14:33;;;;;;;29.58;15.98;;;;;;;-2.73;72.11;102817.59;5105304;28;20032;-75
2021/03/07 01:16:58;;;;;;;30.02;16.08;;;;;;;-2.75;72.09;102820.81;5095711;28;20028;-75
2021/03/07 01:19:27;;;;;;;29.65;16.58;;;;;;;-2.77;72.47;102806.84;5105258;28;20021;-75
2021/03/07 01:21:53;;;;;;;31.92;15.90;;;;;;;-2.77;72.44;102812.03;5106537;28;20024;-75
2021/03/07 01:24:18;;;;;;;30.63;16.75;;;;;;;-2.75;72.39;102806.22;5095839;28;20023;-75
2021/03/07 01:26:43;;;;;;;48.47;27.85;;;;;;;-2.74;71.88;102804.53;5095838;28;20093;-74
2021/03/07 01:29:09;;;;;;;30.02;16.15;;;;;;;-2.79;71.74;102805.81;5107067;28;20015;-75
2021/03/07 01:31:34;;;;;;;33.53;17.75;;;;;;;-2.85;71.77;102806.16;5104655;28;20027;-75
2021/03/07 01:33:59;;;;;;;30.98;16.30;;;;;;;-2.89;72.56;102792.00;5105954;28;20025;-75
2021/03/07 01:36:25;;;;;;;28.95;15.75;;;;;;;-2.89;72.75;102792.00;5106100;28;20076;-75
2021/03/07 01:38:50;;;;;;;29.27;15.75;;;;;;;-2.89;73.17;102792.00;5108322;28;20031;-75
2021/03/07 01:41:15;;;;;;;29.52;16.00;;;;;;;-2.87;73.28;102786.97;5103716;28;20115;-75
2021/03/07 01:43:40;;;;;;;30.70;16.02;;;;;;;-2.91;73.64;102783.22;5094954;28;20139;-75
2021/03/07 01:46:06;;;;;;;29.25;15.70;;;;;;;-2.95;73.43;102775.94;5106675;28;20096;-73
2021/03/07 01:48:31;;;;;;;29.75;15.23;;;;;;;-2.94;73.19;102777.78;5104978;28;20416;-75
2021/03/07 01:50:57;;;;;;;28.17;14.20;;;;;;;-3.05;72.96;102771.59;5093943;28;20385;-62
2021/03/07 01:53:22;;;;;;;29.05;15.48;;;;;;;-3.11;73.26;102768.47;5104366;28;20035;-62
2021/03/07 01:55:50;;;;;;;28.63;15.13;;;;;;;-3.13;73.52;102771.69;5106635;28;20059;-64
2021/03/07 01:58:28;;;;;;;28.38;14.98;;;;;;;-3.14;73.17;102773.38;5094766;28;20016;-62
2021/03/07 02:00:55;;;;;;;28.08;14.48;;;;;;;-3.19;73.30;102767.78;5101799;28;20448;-62
2021/03/07 02:03:20;;;;;;;28.75;14.85;;;;;;;-3.25;73.26;102764.63;5106386;28;20051;-63
2021/03/07 02:05:47;;;;;;;27.27;15.25;;;;;;;-3.28;73.93;102766.03;5094810;28;20116;-62
2021/03/07 02:08:13;;;;;;;29.55;15.10;;;;;;;-3.30;74.10;102759.81;5099091;28;20197;-67
2021/03/07 02:10:43;;;;;;;29.00;14.80;;;;;;;-3.31;73.72;102763.19;5076588;28;20020;-61
2021/03/07 02:13:15;;;;;;;28.73;15.15;;;;;;;-3.34;73.97;102753.44;5106037;28;20027;-64
2021/03/07 02:15:43;;;;;;;30.25;15.32;;;;;;;-3.40;74.09;102752.91;5103473;28;20024;-61
2021/03/07 02:18:11;;;;;;;29.13;15.02;;;;;;;-3.41;74.01;102756.25;5094667;28;20538;-62
2021/03/07 02:20:42;;;;;;;30.52;16.00;;;;;;;-3.45;73.88;102743.78;5105611;28;20051;-62
2021/03/07 02:23:22;;;;;;;30.13;15.35;;;;;;;-3.41;74.06;102744.22;5103404;28;20032;-63
2021/03/07 02:25:50;;;;;;;28.88;15.15;;;;;;;-3.39;75.36;102745.28;5099825;28;20106;-62
2021/03/07 02:28:17;;;;;;;27.85;14.77;;;;;;;-3.40;74.95;102740.88;5106519;28;20080;-62
2021/03/07 02:30:42;;;;;;;29.30;14.98;;;;;;;-3.43;74.98;102732.81;5098540;28;20232;-61
2021/03/07 02:33:13;;;;;;;29.05;14.93;;;;;;;-3.47;75.21;102735.91;5094550;28;20024;-61
2021/03/07 02:35:43;;;;;;;28.83;15.30;;;;;;;-3.48;75.09;102730.59;5094338;28;20059;-61
2021/03/07 02:38:10;;;;;;;28.38;14.93;;;;;;;-3.51;75.30;102732.13;5105445;28;20089;-62
2021/03/07 02:40:36;;;;;;;29.17;15.40;;;;;;;-3.53;75.08;102733.66;5103352;28;20074;-61
2021/03/07 02:43:06;;;;;;;30.42;15.77;;;;;;;-3.55;74.96;102730.03;5093822;28;20024;-61
2021/03/07 02:45:31;;;;;;;29.13;15.57;;;;;;;-3.57;75.59;102716.06;5104536;28;20433;-62
2021/03/07 02:47:58;;;;;;;30.42;15.85;;;;;;;-3.58;75.65;102726.25;5104424;28;20030;-61
2021/03/07 02:50:30;;;;;;;30.05;16.02;;;;;;;-3.60;75.14;102718.34;5103278;28;20476;-62
2021/03/07 02:53:09;;;;;;;28.70;15.05;;;;;;;-3.60;74.40;102720.03;5104334;28;20443;-61
2021/03/07 02:55:37;;;;;;;29.45;15.48;;;;;;;-3.66;74.88;102717.78;5075856;28;20036;-62
2021/03/07 02:58:09;;;;;;;30.20;15.60;;;;;;;-3.73;74.56;102715.41;5104100;28;20512;-75
2021/03/07 03:00:36;;;;;;;30.83;15.95;;;;;;;-3.77;75.24;102711.66;5103308;28;20031;-75
2021/03/07 03:03:07;;;;;;;29.98;15.95;;;;;;;-3.76;74.99;102704.78;5093735;28;20019;-75
2021/03/07 03:05:34;;;;;;;28.77;15.30;;;;;;;-3.79;74.76;102708.00;5104039;28;20056;-74
2021/03/07 03:08:01;;;;;;;29.70;15.27;;;;;;;-3.83;75.03;102710.16;5103706;28;20024;-75
2021/03/07 03:10:28;;;;;;;30.33;15.63;;;;;;;-3.85;75.58;102705.75;5085488;28;20024;-74
2021/03/07 03:12:54;;;;;;;27.83;15.20;;;;;;;-3.91;74.79;102702.59;5104605;28;20027;-75
2021/03/07 03:15:20;;;;;;;30.23;15.60;;;;;;;-3.97;75.56;102694.28;5093646;28;20061;-75
2021/03/07 03:17:49;;;;;;;29.45;16.05;;;;;;;-4.00;75.28;102685.34;5101982;28;20028;-75
2021/03/07 03:20:16;;;;;;;31.48;16.40;;;;;;;-4.02;75.59;102690.34;5097978;28;20093;-75
2021/03/07 03:22:43;;;;;;;30.83;15.95;;;;;;;-4.05;75.43;102690.09;5093574;28;20028;-75
2021/03/07 03:25:09;;;;;;;28.77;15.73;;;;;;;-4.05;75.58;102682.31;5104866;28;20054;-75
2021/03/07 03:27:35;;;;;;;28.83;16.02;;;;;;;-4.05;76.08;102680.69;5102670;28;20027;-75
2021/03/07 03:30:10;;;;;;;31.08;15.93;;;;;;;-4.06;75.43;102684.03;5093177;28;20012;-75
2021/03/07 03:32:35;;;;;;;32.55;16.10;;;;;;;-4.06;76.16;102683.13;5093025;28;20124;-73
2021/03/07 03:35:07;;;;;;;30.70;15.77;;;;;;;-4.08;75.76;102667.47;5103483;28;20091;-74
2021/03/07 03:37:33;;;;;;;30.52;16.48;;;;;;;-4.09;75.81;102667.31;5103034;28;20065;-69
2021/03/07 03:39:59;;;;;;;31.02;16.17;;;;;;;-4.11;75.81;102671.44;5102909;28;20375;-64
2021/03/07 03:42:25;;;;;;;29.73;15.55;;;;;;;-4.13;75.95;102670.41;5104199;28;20022;-64
2021/03/07 03:44:51;;;;;;;30.50;15.80;;;;;;;-4.16;75.31;102672.69;5101931;28;20055;-65
2021/03/07 03:47:17;;;;;;;29.33;16.03;;;;;;;-4.18;76.20;102671.63;5105067;28;20023;-65
2021/03/07 03:49:43;;;;;;;29.97;15.90;;;;;;;-4.22;75.77;102665.28;5097201;28;20067;-66
2021/03/07 03:52:10;;;;;;;32.37;17.33;;;;;;;-4.23;76.74;102671.22;5104017;28;20059;-65
2021/03/07 03:54:43;;;;;;;31.70;15.97;;;;;;;-4.24;76.04;102672.88;5102090;28;20078;-64
2021/03/07 03:57:10;;;;;;;29.97;15.80;;;;;;;-4.23;76.56;102666.94;5093217;28;20419;-69
2021/03/07 03:59:38;;;;;;;30.35;15.93;;;;;;;-4.26;76.09;102668.34;5103633;28;20020;-69
2021/03/07 04:02:05;;;;;;;31.73;15.77;;;;;;;-4.31;75.88;102672.16;5102270;28;20012;-71
2021/03/07 04:04:33;;;;;;;29.37;15.87;;;;;;;-4.32;76.02;102673.84;5093062;28;20092;-68
2021/03/07 04:06:58;;;;;;;30.00;15.15;;;;;;;-4.30;76.53;102669.72;5102447;28;20024;-71
2021/03/07 04:09:25;;;;;;;29.70;15.73;;;;;;;-4.33;75.90;102672.00;5103314;28;20382;-67
2021/03/07 04:11:50;;;;;;;30.20;16.30;;;;;;;-4.41;76.19;102683.31;5092785;28;20036;-66
2021/03/07 04:14:18;;;;;;;29.67;15.83;;;;;;;-4.45;76.61;102676.03;5100386;28;20035;-71
2021/03/07 04:16:47;;;;;;;30.17;15.97;;;;;;;-4.45;77.63;102668.28;5078727;28;20035;-73
2021/03/07 04:19:12;;;;;;;29.70;16.00;;;;;;;-4.46;76.40;102659.63;5092643;28;20035;-74
2021/03/07 04:21:42;;;;;;;29.47;15.80;;;;;;;-4.49;76.83;102655.84;5084594;28;20044;-71
2021/03/07 04:24:08;;;;;;;29.37;15.60;;;;;;;-4.51;77.35;102666.03;5101762;28;20363;-71
2021/03/07 04:26:34;;;;;;;30.70;15.73;;;;;;;-4.51;77.08;102668.63;5092609;28;20115;-71
2021/03/07 04:29:00;;;;;;;30.40;15.77;;;;;;;-4.47;77.38;102663.00;5102573;28;20111;-67
2021/03/07 04:31:26;;;;;;;30.50;15.63;;;;;;;-4.45;77.43;102665.72;5103044;28;20153;-66
2021/03/07 04:33:51;;;;;;;31.20;16.40;;;;;;;-4.46;77.43;102658.72;5092423;28;20499;-62
2021/03/07 04:36:17;;;;;;;30.60;15.83;;;;;;;-4.45;76.69;102657.97;5100800;28;20027;-64
2021/03/07 04:38:42;;;;;;;31.57;15.70;;;;;;;-4.45;77.18;102656.28;5104081;28;20038;-64
2021/03/07 04:41:08;;;;;;;30.13;16.10;;;;;;;-4.46;77.17;102650.97;5101676;28;20023;-63
2021/03/07 04:43:56;;;;;;;29.20;15.03;;;;;;;-4.44;75.56;102652.00;5092224;28;20069;-69
2021/03/07 04:46:23;;;;;;;29.30;15.33;;;;;;;-4.48;76.12;102650.84;5098023;28;20499;-66
2021/03/07 04:48:49;;;;;;;29.77;15.37;;;;;;;-4.49;76.21;102645.53;5104272;28;20029;-63
2021/03/07 04:51:15;;;;;;;28.13;15.03;;;;;;;-4.52;76.35;102647.81;5092683;28;20028;-62
2021/03/07 04:53:40;;;;;;;28.57;15.63;;;;;;;-4.57;76.35;102648.28;5092031;28;20448;-63
2021/03/07 04:56:05;;;;;;;29.53;15.50;;;;;;;-4.61;76.09;102648.75;5092196;28;20028;-63
2021/03/07 04:58:31;;;;;;;30.20;15.53;;;;;;;-4.63;76.60;102644.22;5102506;28;20051;-64
2021/03/07 05:00:56;;;;;;;29.73;15.53;;;;;;;-4.64;76.85;102645.00;5102869;28;20374;-67
2021/03/07 05:03:21;;;;;;;29.60;15.17;;;;;;;-4.65;76.61;102645.75;5092298;28;20047;-66
2021/03/07 05:05:48;;;;;;;29.13;14.97;;;;;;;-4.71;76.83;102646.06;5092362;28;20019;-63
2021/03/07 05:08:14;;;;;;;30.17;14.77;;;;;;;-4.77;77.11;102637.75;5096500;28;20478;-63
2021/03/07 05:10:39;;;;;;;28.17;14.83;;;;;;;-4.80;77.47;102645.22;5103591;28;20027;-63
2021/03/07 05:13:05;;;;;;;29.97;15.10;;;;;;;-4.83;77.40;102629.44;5101736;28;20066;-63
2021/03/07 05:15:30;;;;;;;30.03;15.63;;;;;;;-4.84;77.16;102635.38;5092003;28;20025;-67
2021/03/07 05:17:55;;;;;;;31.33;15.67;;;;;;;-4.85;77.47;102636.13;5101393;28;20047;-65
2021/03/07 05:20:22;;;;;;;29.63;15.60;;;;;;;-4.87;77.40;102632.50;5103537;28;20023;-63
2021/03/07 05:22:47;;;;;;;30.70;15.40;;;;;;;-4.83;77.77;102632.03;5091971;28;20028;-65
2021/03/07 05:25:13;;;;;;;30.43;15.83;;;;;;;-4.81;77.85;102640.81;5103800;28;20031;-65
2021/03/07 05:27:38;;;;;;;30.57;15.60;;;;;;;-4.85;77.93;102637.00;5103588;28;20022;-70
2021/03/07 05:30:04;;;;;;;29.13;14.53;;;;;;;-4.90;76.97;102644.31;5095505;28;20543;-63
2021/03/07 05:32:30;;;;;;;28.13;14.90;;;;;;;-4.95;76.86;102639.47;5095244;28;20020;-67
2021/03/07 05:34:55;;;;;;;30.63;15.93;;;;;;;-5.00;77.45;102639.03;5104926;28;20391;-62
2021/03/07 05:37:20;;;;;;;30.13;15.23;;;;;;;-5.01;78.21;102634.66;5107009;28;20019;-65
2021/03/07 05:39:46;;;;;;;31.17;16.13;;;;;;;-5.04;78.50;102629.19;5095412;28;20074;-63
2021/03/07 05:42:11;;;;;;;32.60;15.40;;;;;;;-5.05;78.26;102629.97;5106804;28;20153;-63
2021/03/07 05:44:37;;;;;;;28.30;15.03;;;;;;;-5.05;78.01;102624.81;5104472;28;20015;-63
2021/03/07 05:47:02;;;;;;;31.57;15.37;;;;;;;-5.07;77.87;102621.16;5095193;28;20039;-67
2021/03/07 05:49:27;;;;;;;31.93;16.00;;;;;;;-5.11;77.76;102616.47;5095272;28;20533;-61
2021/03/07 05:51:53;;;;;;;32.53;16.00;;;;;;;-5.12;78.02;102615.56;5103835;28;20032;-62
2021/03/07 05:54:20;;;;;;;29.53;14.90;;;;;;;-5.11;78.31;102617.41;5106887;28;20406;-63
2021/03/07 05:56:49;;;;;;;29.87;15.80;;;;;;;-5.09;78.85;102614.97;5099268;28;20038;-62
2021/03/07 05:59:16;;;;;;;30.63;15.13;;;;;;;-5.08;78.56;102609.03;5099136;28;20747;-63
2021/03/07 06:01:42;;;;;;;31.97;15.10;;;;;;;-5.04;77.95;102613.72;5094187;28;20520;-67
2021/03/07 06:04:07;;;;;;;31.13;16.13;;;;;;;-5.05;77.85;102606.75;5095002;28;20028;-64
2021/03/07 06:06:33;;;;;;;30.00;15.30;;;;;;;-5.05;77.92;102608.41;5107056;28;20367;-73
2021/03/07 06:09:21;;;;;;;30.00;15.57;;;;;;;-5.05;77.44;102616.16;5095242;28;20426;-62
2021/03/07 06:11:48;;;;;;;31.33;15.47;;;;;;;-5.08;78.66;102611.63;5104115;28;20028;-61
2021/03/07 06:14:28;;;;;;;30.97;15.90;;;;;;;-5.09;77.85;102608.13;5104564;28;20500;-61
2021/03/07 06:17:06;;;;;;;29.67;15.07;;;;;;;-5.08;77.68;102611.63;5094509;28;20483;-61
2021/03/07 06:20:02;;;;;;;29.10;14.90;;;;;;;-5.03;77.16;102614.63;5099794;28;20433;-62
2021/03/07 06:22:28;;;;;;;30.47;15.40;;;;;;;-4.92;77.74;102614.00;5098998;28;20020;-61
2021/03/07 06:24:54;;;;;;;30.73;15.10;;;;;;;-4.87;77.82;102623.06;5094606;28;20032;-62
2021/03/07 06:27:20;;;;;;;30.40;15.73;;;;;;;-4.79;77.93;102616.97;5105566;28;20028;-61
2021/03/07 06:30:15;;;;;;;30.67;14.63;;;;;;;-4.65;77.15;102620.84;5104068;28;20023;-61
2021/03/07 06:32:52;;;;;;;30.57;15.60;;;;;;;-4.53;77.35;102620.19;5102133;28;20032;-74
2021/03/07 06:35:23;;;;;;;32.17;15.20;;;;;;;-4.41;77.29;102621.34;5103673;28;20375;-70
2021/03/07 06:38:02;;;;;;;36.23;17.23;;;;;;;-4.30;78.12;102623.22;5104719;28;20036;-74
2021/03/07 06:40:32;;;;;;;43.43;17.60;;;;;;;-4.20;78.51;102622.41;5098910;28;20028;-68
2021/03/07 06:43:00;;;;;;;41.57;18.33;;;;;;;-4.17;78.78;102616.63;5099132;28;20027;-71
2021/03/07 06:45:37;;;;;;;69.07;20.67;;;;;;;-4.10;79.00;102621.59;5098311;28;20020;-70
2021/03/07 06:48:03;;;;;;;47.40;20.17;;;;;;;-4.05;79.81;102618.66;5099761;28;20088;-69
2021/03/07 06:50:29;;;;;;;44.90;20.50;;;;;;;-4.01;79.99;102611.19;5106264;28;20028;-71
2021/03/07 06:52:57;;;;;;;45.73;23.23;;;;;;;-3.97;79.86;102616.78;5102521;28;20035;-70
2021/03/07 06:55:25;;;;;;;50.67;22.80;;;;;;;-3.92;79.83;102609.44;5093999;28;20115;-70
2021/03/07 06:57:51;;;;;;;42.67;21.97;;;;;;;-3.88;79.80;102609.84;5105502;28;20370;-74
2021/03/07 07:00:17;;;;;;;52.87;22.83;;;;;;;-3.82;79.71;102614.66;5103624;28;20142;-73
2021/03/07 07:03:31;;;;;;;42.63;22.20;;;;;;;-3.76;78.57;102617.81;5103828;28;20493;-72
2021/03/07 07:05:56;;;;;;;41.23;20.87;;;;;;;-3.68;79.50;102618.50;5096688;28;20039;-70
2021/03/07 07:08:45;;;;;;;38.23;20.33;;;;;;;-3.61;78.97;102612.19;5104986;28;20107;-73
2021/03/07 07:11:11;;;;;;;40.08;20.02;;;;;;;-3.55;80.01;102617.94;5100718;28;20028;-73
2021/03/07 07:13:45;;;;;;;38.90;20.37;;;;;;;-3.53;79.35;102616.41;5091054;28;20074;-63
2021/03/07 07:16:11;;;;;;;39.90;20.63;;;;;;;-3.50;79.36;102620.16;5094284;28;20023;-64
2021/03/07 07:18:39;;;;;;;40.40;21.00;;;;;;;-3.44;79.64;102616.31;5092346;28;20144;-65
2021/03/07 07:21:07;;;;;;;39.70;21.42;;;;;;;-3.33;79.80;102618.19;5091541;28;20076;-66
2021/03/07 07:23:33;;;;;;;40.97;20.83;;;;;;;-3.19;79.79;102606.44;5092901;28;20474;-67
2021/03/07 07:25:58;;;;;;;51.55;20.45;;;;;;;-3.08;79.99;102610.88;5091766;28;20173;-66
2021/03/07 07:28:25;;;;;;;57.05;20.42;;;;;;;-2.96;79.85;102613.63;5092366;28;20486;-66
2021/03/07 07:31:00;;;;;;;42.03;20.90;;;;;;;-2.87;79.50;102618.72;5093049;28;20024;-68
2021/03/07 07:33:54;;;;;;;53.80;19.85;;;;;;;-2.79;79.66;102619.41;5089092;28;20024;-76
2021/03/07 07:36:22;;;;;;;;;;;;;;;-2.70;77.18;102617.59;5092357;28;20046;-68
2021/03/07 07:38:49;;;;;;;30.52;17.75;;;;;;;-2.54;79.37;102615.53;5092975;28;20295;-66
2021/03/07 07:41:29;;;;;;;34.17;19.10;;;;;;;-2.37;79.46;102616.09;5091392;28;20107;-73
2021/03/07 07:43:54;;;;;;;32.00;17.75;;;;;;;-2.22;79.72;102606.13;5090925;28;20016;-69
2021/03/07 07:46:20;;;;;;;33.30;18.33;;;;;;;-2.07;79.71;102609.97;5091851;28;20440;-67
2021/03/07 07:48:46;;;;;;;32.88;18.63;;;;;;;-1.95;79.90;102612.72;5092456;28;20024;-66
2021/03/07 07:51:46;;;;;;;33.30;18.63;;;;;;;-1.82;78.44;102614.59;5091433;28;20032;-66
2021/03/07 07:54:54;;;;;;;30.67;17.65;;;;;;;-1.69;79.03;102613.94;4999409;28;20041;-65
2021/03/07 07:57:31;;;;;;;33.65;18.25;;;;;;;-1.49;79.02;102605.19;4996178;28;20109;-66
2021/03/07 07:59:57;;;;;;;33.22;18.40;;;;;;;-1.33;79.25;102605.66;4998583;28;20125;-75
2021/03/07 08:02:44;;;;;;;30.70;17.63;;;;;;;-1.11;78.32;102610.88;4997670;28;20043;-65
2021/03/07 08:05:26;;;;;;;32.08;17.75;;;;;;;-0.93;78.76;102605.34;4989052;28;20030;-68
2021/03/07 08:07:55;;;;;;;32.75;17.00;;;;;;;-0.79;78.36;102606.44;4993304;28;20030;-68
2021/03/07 08:10:39;;;;;;;30.10;16.83;;;;;;;-0.67;78.17;102611.66;4996399;28;20088;-64
2021/03/07 08:13:06;;;;;;;32.30;17.38;;;;;;;-0.63;78.69;102614.63;4996735;28;20038;-61
2021/03/07 08:15:32;;;;;;;29.73;17.08;;;;;;;-0.62;78.64;102615.56;4995742;28;20156;-62
2021/03/07 08:18:04;;;;;;;29.55;16.67;;;;;;;-0.58;78.73;102613.31;4996267;28;20122;-64
2021/03/07 08:20:39;;;;;;;31.05;17.33;;;;;;;-0.36;78.28;102613.25;4992528;28;20491;-61
2021/03/07 08:23:12;;;;;;;29.20;16.50;;;;;;;-0.20;77.77;102611.84;4999264;28;20112;-61
2021/03/07 08:25:46;;;;;;;29.15;16.42;;;;;;;0.03;77.73;102610.06;4996236;28;20033;-61
2021/03/07 08:28:26;;;;;;;29.38;15.93;;;;;;;0.29;76.90;102605.16;5042227;28;20040;-62
2021/03/07 08:30:53;;;;;;;29.30;16.35;;;;;;;0.68;77.22;102602.75;5089697;28;20036;-62
2021/03/07 08:33:26;;;;;;;29.63;15.82;;;;;;;0.97;76.14;102604.84;5091350;28;20031;-63
2021/03/07 08:36:10;;;;;;;30.38;16.27;;;;;;;1.27;75.73;102596.47;5092120;28;20490;-62
2021/03/07 08:38:36;;;;;;;28.63;15.88;;;;;;;1.50;75.57;102600.69;5093172;28;20032;-62
2021/03/07 08:41:02;;;;;;;29.45;15.95;;;;;;;1.70;75.19;102603.00;5092161;28;20386;-62
2021/03/07 08:43:29;;;;;;;28.20;15.30;;;;;;;1.87;74.30;102600.63;5090699;28;20385;-69
2021/03/07 08:46:12;;;;;;;30.08;15.27;;;;;;;2.20;74.27;102598.44;5096334;28;20028;-72
2021/03/07 08:49:14;;;;;;;28.13;14.65;;;;;;;2.74;73.32;102599.38;5088852;28;20020;-73
2021/03/07 08:51:42;;;;;;;26.43;13.87;;;;;;;3.42;70.85;102600.97;5089810;28;20032;-67
2021/03/07 08:54:11;;;;;;;27.25;13.80;;;;;;;3.97;69.19;102600.78;5090289;28;20109;-73
2021/03/07 08:56:37;;;;;;;26.90;13.77;;;;;;;4.46;67.52;102593.19;5092181;28;20032;-71
2021/03/07 08:59:04;;;;;;;27.60;13.50;;;;;;;4.83;66.17;102592.63;5090909;28;20144;-69
2021/03/07 09:01:30;;;;;;;24.38;12.80;;;;;;;5.21;65.97;102590.31;5094542;28;20055;-66
2021/03/07 09:03:58;;;;;;;25.40;12.32;;;;;;;5.68;64.50;102589.34;5094961;28;20490;-70
2021/03/07 09:06:31;;;;;;;25.17;11.85;;;;;;;6.09;63.27;102592.31;5094788;28;20107;-70
2021/03/07 09:09:02;;;;;;;24.75;11.18;;;;;;;5.95;62.65;102588.94;5095201;28;20065;-67
2021/03/07 09:11:27;;;;;;;24.80;11.45;;;;;;;5.91;62.15;102582.66;5097797;28;20032;-69
2021/03/07 09:13:53;;;;;;;23.00;10.98;;;;;;;5.86;61.78;102581.50;5094113;28;20028;-65
2021/03/07 09:16:18;;;;;;;22.77;10.13;;;;;;;5.88;61.06;102576.31;5094697;28;20028;-68
2021/03/07 09:18:44;;;;;;;22.05;10.10;;;;;;;5.87;61.20;102579.78;5095724;28;20027;-67
2021/03/07 09:21:11;;;;;;;24.13;10.18;;;;;;;5.79;61.68;102570.63;5097254;28;20502;-69
2021/03/07 09:23:40;;;;;;;23.20;9.73;;;;;;;5.89;61.05;102580.75;5095212;28;20104;-67
2021/03/07 09:26:08;;;;;;;23.48;9.75;;;;;;;6.01;60.80;102573.53;5093982;28;20031;-69
2021/03/07 09:28:35;;;;;;;24.38;9.55;;;;;;;5.97;60.27;102570.63;5094638;28;20023;-64
2021/03/07 09:31:03;;;;;;;23.50;9.80;;;;;;;5.98;61.00;102573.38;5098436;28;20123;-64
2021/03/07 09:33:29;;;;;;;21.92;9.20;;;;;;;6.06;60.32;102577.31;5096360;28;20026;-67
2021/03/07 09:36:07;;;;;;;22.48;9.63;;;;;;;6.21;59.70;102582.41;5093572;28;20026;-63
2021/03/07 09:39:05;;;;;;;22.30;9.65;;;;;;;6.27;59.71;102572.19;5089496;28;20045;-64
2021/03/07 09:41:32;;;;;;;22.90;9.45;;;;;;;6.39;58.85;102571.00;5094211;28;20032;-68
2021/03/07 09:44:00;;;;;;;23.10;9.57;;;;;;;6.63;58.50;102572.19;5095358;28;20109;-64
2021/03/07 09:46:26;;;;;;;22.20;9.35;;;;;;;6.72;57.72;102569.13;5093979;28;20031;-64
2021/03/07 09:49:02;;;;;;;22.25;9.35;;;;;;;6.89;58.20;102566.41;5076029;28;20055;-71
2021/03/07 09:51:30;;;;;;;22.70;8.65;;;;;;;7.21;56.70;102573.16;5094512;28;20032;-69
2021/03/07 09:53:55;;;;;;;21.90;8.38;;;;;;;7.67;55.33;102559.41;5093533;28;20487;-64
2021/03/07 09:56:26;;;;;;;22.60;8.98;;;;;;;7.95;54.59;102559.69;5095177;28;20440;-64
2021/03/07 09:58:52;;;;;;;21.17;8.07;;;;;;;7.95;53.77;102562.31;5093862;28;20052;-63
2021/03/07 10:01:18;;;;;;;21.50;7.72;;;;;;;8.37;52.80;102555.31;5075242;28;20157;-61
2021/03/07 10:03:43;;;;;;;20.70;7.50;;;;;;;9.10;50.51;102555.53;5093386;28;20020;-63
2021/03/07 10:06:14;;;;;;;20.58;7.28;;;;;;;9.71;49.23;102551.56;5093654;28;20031;-62
2021/03/07 10:08:40;;;;;;;20.83;7.30;;;;;;;9.88;47.91;102556.53;5092811;28;20077;-63
2021/03/07 10:11:09;;;;;;;20.52;7.22;;;;;;;9.80;48.46;102560.66;5095564;28;20024;-62
2021/03/07 10:13:34;;;;;;;20.13;7.28;;;;;;;10.40;46.19;102560.06;5095199;28;20028;-63
2021/03/07 10:16:00;;;;;;;20.42;7.03;;;;;;;10.44;45.47;102565.50;5093684;28;20065;-63
2021/03/07 10:18:25;;;;;;;19.23;6.40;;;;;;;11.14;43.47;102565.88;5094514;28;20095;-62
2021/03/07 10:20:57;;;;;;;17.92;5.45;;;;;;;12.33;42.13;102557.56;5077865;28;20434;-61
2021/03/07 10:23:26;;;;;;;18.23;5.90;;;;;;;12.61;39.32;102555.56;5094241;28;20024;-61
2021/03/07 10:25:51;;;;;;;17.65;5.15;;;;;;;12.31;37.39;102544.28;5092676;28;20116;-66
2021/03/07 10:28:30;;;;;;;16.10;4.80;;;;;;;12.96;36.51;102552.81;5092909;28;21375;-64
2021/03/07 10:31:13;;;;;;;14.50;3.90;;;;;;;12.84;36.57;102550.78;5089743;28;20024;-61
2021/03/07 10:33:38;;;;;;;;;;;;;;;13.23;39.68;102550.72;5094462;28;20064;-62
2021/03/07 10:36:07;;;;;;;11.85;3.72;;;;;;;14.23;32.75;102551.69;5094275;28;19996;-65
2021/03/07 10:38:35;;;;;;;12.10;4.00;;;;;;;14.00;30.61;102539.78;5096306;28;20032;-67
2021/03/07 10:41:19;;;;;;;14.13;3.97;;;;;;;12.62;34.11;102550.28;5093598;28;20020;-64
2021/03/07 10:43:46;;;;;;;11.10;3.88;;;;;;;11.04;32.49;102542.63;5094161;28;20028;-61
2021/03/07 10:46:28;;;;;;;12.05;4.00;;;;;;;9.88;36.41;102552.16;5092826;28;20035;-61
2021/03/07 10:48:57;;;;;;;10.73;3.80;;;;;;;9.08;36.68;102539.63;5092086;28;20044;-65
2021/03/07 10:51:23;;;;;;;14.00;4.22;;;;;;;8.58;37.88;102537.66;5093827;28;20620;-62
2021/03/07 10:53:48;;;;;;;13.13;3.90;;;;;;;8.12;38.48;102531.41;5092049;28;20131;-61
2021/03/07 10:56:14;;;;;;;13.25;4.13;;;;;;;7.75;39.14;102529.88;5091815;28;20031;-61
2021/03/07 10:58:39;;;;;;;14.00;4.03;;;;;;;7.89;38.54;102533.09;5093928;28;20035;-63
2021/03/07 11:01:05;;;;;;;13.77;4.10;;;;;;;7.66;39.07;102531.28;5092506;28;20475;-60
2021/03/07 11:03:30;;;;;;;15.07;4.32;;;;;;;8.94;37.72;102526.75;5093614;28;20047;-62
2021/03/07 11:05:55;;;;;;;15.50;4.47;;;;;;;10.82;34.29;102525.22;5093848;28;20028;-62
2021/03/07 11:08:21;;;;;;;16.17;4.50;;;;;;;12.79;31.63;102518.84;5073850;28;20043;-62
2021/03/07 11:10:47;;;;;;;14.65;4.57;;;;;;;13.75;30.63;102512.78;5093803;28;20031;-63
2021/03/07 11:13:12;;;;;;;15.63;5.10;;;;;;;15.07;28.20;102518.31;5091806;28;20075;-63
2021/03/07 11:15:38;;;;;;;15.98;5.22;;;;;;;16.48;26.60;102507.19;5091525;28;20031;-61
2021/03/07 11:18:04;;;;;;;16.52;5.53;;;;;;;16.79;24.98;102507.34;5093340;28;20028;-65
2021/03/07 11:20:29;;;;;;;18.90;6.13;;;;;;;17.12;24.92;102500.41;5092413;28;20040;-62